createdAt,value
2023-04-18T00:01:00.516Z,4.43
2023-04-18T00:03:33.959Z,4.38
2023-04-18T00:06:15.674Z,5.90
2023-04-18T00:08:54.621Z,3.40
2023-04-18T00:11:31.617Z,4.28
2023-04-18T00:14:12.378Z,3.80
2023-04-18T00:16:58.579Z,4.20
2023-04-18T00:19:37.074Z,3.35
2023-04-18T00:22:17.638Z,4.80
2023-04-18T00:24:58.937Z,3.10
2023-04-18T00:27:37.198Z,4.57
2023-04-18T00:30:15.295Z,3.63
2023-04-18T00:32:54.652Z,4.38
2023-04-18T00:35:38.352Z,3.33
2023-04-18T00:38:17.567Z,3.90
2023-04-18T00:41:06.235Z,3.13
2023-04-18T00:43:38.248Z,2.75
2023-04-18T00:46:17.139Z,6.43
2023-04-18T00:48:57.003Z,5.13
2023-04-18T00:51:40.294Z,3.88
2023-04-18T00:54:44.691Z,2.90
2023-04-18T00:57:23.027Z,2.72
2023-04-18T00:59:59.173Z,3.88
2023-04-18T01:02:50.153Z,3.90
2023-04-18T01:05:32.987Z,4.00
2023-04-18T01:08:07.421Z,3.97
2023-04-18T01:10:41.990Z,3.10
2023-04-18T01:13:29.332Z,3.20
2023-04-18T01:16:04.652Z,4.72
2023-04-18T01:18:40.803Z,4.00
2023-04-18T01:21:23.372Z,6.15
2023-04-18T01:24:09.297Z,5.25
2023-04-18T01:26:52.440Z,3.63
2023-04-18T01:29:28.547Z,3.92
2023-04-18T01:32:13.410Z,4.85
2023-04-18T01:34:47.587Z,5.20
2023-04-18T01:37:24.185Z,4.15
2023-04-18T01:40:01.996Z,3.38
2023-04-18T01:42:41.188Z,4.93
2023-04-18T01:45:20.209Z,3.13
2023-04-18T01:47:56.531Z,3.80
2023-04-18T01:50:33.313Z,3.38
2023-04-18T01:53:16.402Z,4.95
2023-04-18T01:55:54.030Z,4.40
2023-04-18T01:58:32.248Z,5.22
2023-04-18T02:01:08.586Z,3.97
2023-04-18T02:03:51.141Z,3.65
2023-04-18T02:06:29.160Z,4.90
2023-04-18T02:09:03.036Z,4.10
2023-04-18T02:11:37.060Z,3.95
2023-04-18T02:14:15.212Z,3.38
2023-04-18T02:16:53.739Z,4.22
2023-04-18T02:19:36.196Z,4.20
2023-04-18T02:22:12.303Z,4.43
2023-04-18T02:24:54.942Z,4.28
2023-04-18T02:27:27.377Z,14.40
2023-04-18T02:30:12.328Z,4.07
2023-04-18T02:32:47.472Z,3.95
2023-04-18T02:35:23.207Z,5.15
2023-04-18T02:38:08.845Z,5.00
2023-04-18T02:40:51.772Z,3.50
2023-04-18T02:43:35.419Z,6.78
2023-04-18T02:46:16.472Z,3.92
2023-04-18T02:48:54.174Z,3.40
2023-04-18T02:51:32.146Z,3.80
2023-04-18T02:54:12.367Z,4.05
2023-04-18T02:57:03.741Z,5.55
2023-04-18T03:00:01.794Z,3.72
2023-04-18T03:03:08.846Z,3.22
2023-04-18T03:06:13.935Z,1.90
2023-04-18T03:08:54.170Z,1.75
2023-04-18T03:11:49.402Z,2.15
2023-04-18T03:14:31.153Z,1.67
2023-04-18T03:17:10.523Z,1.60
2023-04-18T03:19:58.182Z,4.72
2023-04-18T03:22:37.288Z,1.88
2023-04-18T03:25:19.222Z,1.70
2023-04-18T03:28:13.415Z,2.10
2023-04-18T03:30:52.135Z,2.75
2023-04-18T03:33:24.793Z,1.65
2023-04-18T03:36:13.418Z,2.20
2023-04-18T03:38:44.922Z,1.60
2023-04-18T03:41:18.268Z,1.45
2023-04-18T03:43:51.356Z,2.47
2023-04-18T03:46:27.139Z,1.38
2023-04-18T03:49:06.783Z,1.65
2023-04-18T03:51:48.957Z,1.00
2023-04-18T03:54:26.804Z,1.92
2023-04-18T03:57:06.744Z,2.22
2023-04-18T03:59:52.620Z,2.20
2023-04-18T04:02:26.769Z,2.15
2023-04-18T04:05:05.857Z,1.30
2023-04-18T04:07:41.116Z,1.45
2023-04-18T04:10:17.285Z,1.52
2023-04-18T04:12:54.791Z,2.88
2023-04-18T04:15:32.465Z,1.85
2023-04-18T04:18:13.869Z,1.85
2023-04-18T04:20:56.257Z,1.85
2023-04-18T04:26:31.298Z,2.42
2023-04-18T04:29:16.465Z,1.20
2023-04-18T04:31:50.358Z,1.20
2023-04-18T04:34:44.467Z,3.78
2023-04-18T04:37:19.890Z,1.45
2023-04-18T04:40:17.099Z,1.70
2023-04-18T04:43:15.793Z,1.48
2023-04-18T04:46:16.492Z,0.93
2023-04-18T04:48:57.390Z,1.10
2023-04-18T04:51:39.654Z,1.52
2023-04-18T04:54:14.954Z,1.00
2023-04-18T04:56:53.306Z,2.50
2023-04-18T04:59:27.904Z,1.45
2023-04-18T05:02:03.984Z,1.30
2023-04-18T05:04:40.620Z,1.40
2023-04-18T05:07:19.299Z,1.08
2023-04-18T05:09:56.339Z,1.45
2023-04-18T05:12:42.432Z,1.15
2023-04-18T05:15:21.732Z,0.85
2023-04-18T05:17:58.437Z,1.70
2023-04-18T05:20:32.502Z,0.60
2023-04-18T05:23:07.204Z,1.23
2023-04-18T05:25:50.101Z,2.53
2023-04-18T05:28:28.900Z,2.00
2023-04-18T05:31:04.462Z,2.05
2023-04-18T05:33:45.887Z,4.07
2023-04-18T05:36:18.930Z,3.60
2023-04-18T05:39:02.765Z,1.42
2023-04-18T05:41:37.431Z,1.35
2023-04-18T05:44:16.316Z,3.15
2023-04-18T05:46:54.745Z,1.73
2023-04-18T05:49:28.275Z,2.05
2023-04-18T05:52:03.539Z,2.05
2023-04-18T05:54:48.508Z,2.28
2023-04-18T05:57:26.073Z,1.60
2023-04-18T06:00:15.970Z,1.30
2023-04-18T06:02:50.892Z,1.20
2023-04-18T06:05:30.869Z,3.00
2023-04-18T06:08:08.663Z,2.45
2023-04-18T06:10:41.634Z,2.17
2023-04-18T06:13:21.477Z,2.65
2023-04-18T06:15:58.499Z,2.22
2023-04-18T06:18:39.097Z,2.95
2023-04-18T06:21:11.810Z,3.28
2023-04-18T06:23:52.439Z,1.80
2023-04-18T06:26:29.549Z,2.33
2023-04-18T06:29:05.823Z,2.40
2023-04-18T06:31:52.278Z,1.77
2023-04-18T06:34:39.007Z,2.55
2023-04-18T06:37:11.586Z,1.92
2023-04-18T06:42:22.021Z,1.88
2023-04-18T06:45:00.880Z,1.63
2023-04-18T06:47:35.046Z,1.48
2023-04-18T06:50:08.068Z,1.60
2023-04-18T06:52:47.891Z,4.75
2023-04-18T06:55:24.181Z,2.10
2023-04-18T06:57:57.340Z,1.60
2023-04-18T07:00:29.363Z,2.10
2023-04-18T07:03:11.282Z,1.63
2023-04-18T07:05:43.769Z,2.38
2023-04-18T07:08:21.513Z,2.65
2023-04-18T07:10:57.364Z,5.35
2023-04-18T07:13:37.325Z,5.10
2023-04-18T07:16:09.131Z,2.25
2023-04-18T07:18:44.484Z,4.68
2023-04-18T07:21:17.319Z,2.00
2023-04-18T07:23:55.375Z,1.92
2023-04-18T07:26:37.505Z,2.15
2023-04-18T07:29:15.994Z,3.35
2023-04-18T07:31:50.825Z,3.00
2023-04-18T07:34:30.123Z,2.78
2023-04-18T07:37:08.076Z,4.10
2023-04-18T07:39:42.132Z,2.42
2023-04-18T07:42:19.191Z,2.58
2023-04-18T07:44:59.589Z,2.90
2023-04-18T07:47:36.930Z,2.40
2023-04-18T07:50:20.657Z,3.28
2023-04-18T07:52:57.692Z,2.35
2023-04-18T07:55:33.462Z,2.20
2023-04-18T07:58:10.741Z,5.65
2023-04-18T08:00:46.369Z,3.03
2023-04-18T08:06:25.281Z,2.95
2023-04-18T08:09:09.470Z,3.92
2023-04-18T08:11:44.300Z,5.85
2023-04-18T08:14:22.543Z,4.90
2023-04-18T08:16:58.525Z,2.47
2023-04-18T08:19:31.559Z,2.30
2023-04-18T08:22:22.988Z,2.20
2023-04-18T08:25:04.306Z,3.30
2023-04-18T08:27:35.667Z,8.57
2023-04-18T08:30:15.846Z,2.63
2023-04-18T08:32:54.611Z,2.53
2023-04-18T08:35:39.542Z,3.30
2023-04-18T08:38:22.800Z,2.65
2023-04-18T08:41:01.364Z,3.03
2023-04-18T08:43:35.743Z,4.20
2023-04-18T08:46:11.014Z,2.63
2023-04-18T08:48:50.160Z,4.05
2023-04-18T08:51:29.393Z,3.05
2023-04-18T08:54:07.556Z,2.85
2023-04-18T08:56:46.339Z,3.80
2023-04-18T08:59:21.955Z,2.45
2023-04-18T09:02:04.650Z,3.60
2023-04-18T09:04:43.456Z,2.45
2023-04-18T09:07:20.266Z,4.00
2023-04-18T09:10:02.077Z,2.35
2023-04-18T09:12:40.419Z,3.15
2023-04-18T09:15:23.682Z,2.25
2023-04-18T09:18:05.276Z,2.28
2023-04-18T09:20:49.805Z,4.40
2023-04-18T09:23:32.119Z,4.45
2023-04-18T09:26:12.074Z,3.65
2023-04-18T09:29:01.804Z,3.13
2023-04-18T09:31:36.024Z,5.65
2023-04-18T09:34:15.964Z,6.50
2023-04-18T09:37:11.659Z,2.55
2023-04-18T09:39:50.194Z,3.25
2023-04-18T09:42:29.657Z,3.13
2023-04-18T09:45:19.930Z,3.60
2023-04-18T09:48:00.667Z,3.78
2023-04-18T09:50:37.402Z,2.90
2023-04-18T09:53:15.188Z,2.10
2023-04-18T09:55:52.545Z,2.92
2023-04-18T09:58:33.257Z,2.70
2023-04-18T10:01:05.417Z,6.15
2023-04-18T10:03:47.507Z,1.98
2023-04-18T10:06:25.591Z,3.42
2023-04-18T10:09:02.832Z,3.88
2023-04-18T10:11:43.924Z,2.63
2023-04-18T10:16:53.503Z,2.33
2023-04-18T10:19:33.114Z,4.10
2023-04-18T10:22:12.417Z,1.70
2023-04-18T10:24:53.907Z,1.85
2023-04-18T10:27:54.102Z,3.80
2023-04-18T10:31:00.646Z,3.35
2023-04-18T10:33:42.516Z,1.70
2023-04-18T10:36:22.893Z,1.30
2023-04-18T10:38:59.994Z,1.67
2023-04-18T10:41:41.058Z,4.20
2023-04-18T10:44:28.830Z,2.95
2023-04-18T10:47:32.456Z,3.03
2023-04-18T10:50:19.601Z,2.03
2023-04-18T10:52:56.903Z,3.25
2023-04-18T10:55:34.303Z,3.22
2023-04-18T10:58:08.658Z,4.32
2023-04-18T11:00:49.014Z,1.63
2023-04-18T11:03:37.356Z,4.35
2023-04-18T11:06:14.062Z,3.83
2023-04-18T11:08:52.155Z,2.42
2023-04-18T11:11:31.786Z,3.42
2023-04-18T11:14:08.686Z,2.40
2023-04-18T11:16:48.266Z,2.50
2023-04-18T11:19:31.286Z,2.63
2023-04-18T11:22:06.352Z,2.53
2023-04-18T11:24:43.204Z,2.08
2023-04-18T11:27:22.912Z,4.90
2023-04-18T11:30:02.928Z,3.15
2023-04-18T11:32:43.922Z,2.38
2023-04-18T11:35:29.331Z,2.95
2023-04-18T11:38:11.435Z,3.40
2023-04-18T11:40:52.167Z,6.63
2023-04-18T11:43:32.937Z,4.10
2023-04-18T11:46:10.119Z,4.75
2023-04-18T11:48:46.483Z,3.17
2023-04-18T11:51:49.441Z,3.65
2023-04-18T11:54:52.830Z,2.58
2023-04-18T11:57:32.265Z,3.03
2023-04-18T12:00:08.130Z,2.92
2023-04-18T12:02:53.348Z,2.58
2023-04-18T12:05:33.955Z,3.38
2023-04-18T12:08:20.149Z,4.53
2023-04-18T12:10:55.809Z,5.38
2023-04-18T12:13:40.972Z,3.42
2023-04-18T12:16:17.994Z,5.57
2023-04-18T12:18:52.737Z,4.82
2023-04-18T12:21:31.434Z,3.03
2023-04-18T12:24:15.922Z,3.45
2023-04-18T12:27:00.612Z,3.90
2023-04-18T12:29:40.302Z,4.85
2023-04-18T12:32:17.722Z,8.18
2023-04-18T12:34:59.326Z,4.45
2023-04-18T12:37:39.400Z,5.15
2023-04-18T12:40:19.323Z,4.23
2023-04-18T12:42:57.024Z,4.70
2023-04-18T12:45:37.440Z,5.63
2023-04-18T12:48:20.453Z,7.45
2023-04-18T12:51:10.831Z,7.20
2023-04-18T12:53:46.671Z,4.95
2023-04-18T12:56:28.151Z,4.00
2023-04-18T12:59:16.847Z,4.25
2023-04-18T13:01:54.359Z,4.47
2023-04-18T13:04:30.929Z,6.65
2023-04-18T13:07:03.444Z,6.13
2023-04-18T13:09:37.769Z,6.22
2023-04-18T13:12:15.156Z,4.95
2023-04-18T13:14:48.797Z,5.13
2023-04-18T13:17:24.224Z,6.05
2023-04-18T13:19:58.381Z,5.57
2023-04-18T13:22:46.089Z,6.57
2023-04-18T13:25:17.925Z,5.50
2023-04-18T13:27:53.893Z,10.07
2023-04-18T13:30:40.515Z,7.65
2023-04-18T13:33:25.315Z,9.05
2023-04-18T13:35:57.826Z,8.38
2023-04-18T13:38:34.189Z,6.15
2023-04-18T13:41:12.777Z,7.10
2023-04-18T13:43:47.491Z,6.00
2023-04-18T13:46:29.823Z,7.85
2023-04-18T13:49:09.835Z,5.72
2023-04-18T13:51:45.734Z,6.43
2023-04-18T13:54:31.366Z,5.72
2023-04-18T13:57:05.415Z,6.13
2023-04-18T13:59:46.514Z,7.85
2023-04-18T14:02:31.516Z,5.80
2023-04-18T14:05:23.006Z,5.85
2023-04-18T14:08:02.273Z,6.93
2023-04-18T14:10:33.775Z,8.52
2023-04-18T14:13:13.567Z,5.97
2023-04-18T14:15:50.736Z,9.23
2023-04-18T14:18:27.628Z,6.45
2023-04-18T14:21:08.554Z,8.95
2023-04-18T14:23:43.520Z,7.30
2023-04-18T14:26:19.011Z,5.25
2023-04-18T14:29:05.252Z,8.98
2023-04-18T14:31:49.306Z,4.82
2023-04-18T14:34:29.029Z,4.65
2023-04-18T14:37:04.046Z,5.38
2023-04-18T14:39:49.483Z,6.80
2023-04-18T14:42:24.152Z,4.53
2023-04-18T14:44:58.453Z,4.75
2023-04-18T14:47:36.152Z,7.03
2023-04-18T14:50:12.469Z,5.80
2023-04-18T14:52:47.070Z,5.18
2023-04-18T14:55:20.209Z,7.57
2023-04-18T14:57:56.021Z,9.93
2023-04-18T15:00:28.467Z,5.40
2023-04-18T15:03:07.693Z,7.07
2023-04-18T15:05:49.967Z,8.15
2023-04-18T15:08:33.075Z,6.53
2023-04-18T15:11:09.708Z,7.25
2023-04-18T15:13:48.012Z,7.28
2023-04-18T15:16:20.730Z,6.22
2023-04-18T15:19:00.858Z,6.28
2023-04-18T15:21:39.591Z,5.57
2023-04-18T15:24:12.666Z,5.88
2023-04-18T15:26:45.562Z,6.50
2023-04-18T15:29:19.839Z,8.73
2023-04-18T15:31:52.792Z,8.77
2023-04-18T15:34:28.073Z,7.63
2023-04-18T15:37:07.318Z,9.10
2023-04-18T15:39:41.056Z,6.28
2023-04-18T15:42:18.503Z,7.32
2023-04-18T15:44:52.994Z,11.00
2023-04-18T15:47:27.998Z,7.57
2023-04-18T15:50:08.643Z,7.95
2023-04-18T15:52:44.780Z,8.20
2023-04-18T15:55:20.127Z,18.17
2023-04-18T15:57:55.182Z,29.25
2023-04-18T16:00:34.696Z,25.92
2023-04-18T16:03:10.185Z,17.58
2023-04-18T16:05:50.218Z,7.70
2023-04-18T16:08:26.987Z,7.68
2023-04-18T16:10:58.189Z,12.88
2023-04-18T16:13:31.616Z,12.20
2023-04-18T16:16:06.942Z,12.60
2023-04-18T16:18:44.159Z,7.63
2023-04-18T16:21:23.491Z,9.02
2023-04-18T16:24:00.563Z,10.93
2023-04-18T16:26:38.494Z,7.65
2023-04-18T16:29:15.641Z,8.82
2023-04-18T16:31:49.424Z,16.85
2023-04-18T16:34:23.021Z,17.80
2023-04-18T16:36:58.986Z,10.48
2023-04-18T16:39:34.073Z,11.55
2023-04-18T16:42:15.376Z,11.15
2023-04-18T16:44:54.101Z,10.88
2023-04-18T16:47:28.828Z,9.13
2023-04-18T16:50:17.699Z,7.50
2023-04-18T16:52:55.168Z,8.07
2023-04-18T16:55:27.339Z,13.02
2023-04-18T16:58:09.418Z,12.13
2023-04-18T17:00:46.377Z,10.70
2023-04-18T17:03:18.507Z,11.63
2023-04-18T17:05:57.103Z,13.27
2023-04-18T17:08:36.791Z,14.30
2023-04-18T17:11:13.646Z,20.73
2023-04-18T17:13:55.666Z,14.98
2023-04-18T17:16:30.006Z,11.38
2023-04-18T17:19:10.114Z,16.40
2023-04-18T17:21:48.107Z,14.27
2023-04-18T17:24:31.301Z,12.48
2023-04-18T17:27:06.819Z,11.07
2023-04-18T17:29:45.936Z,10.40
2023-04-18T17:32:33.231Z,8.98
2023-04-18T17:35:07.846Z,9.25
2023-04-18T17:37:50.277Z,11.38
2023-04-18T17:40:30.452Z,10.63
2023-04-18T17:43:19.977Z,9.02
2023-04-18T17:45:58.085Z,10.60
2023-04-18T17:48:33.725Z,11.90
2023-04-18T17:51:07.209Z,13.48
2023-04-18T17:53:51.571Z,12.98
2023-04-18T17:56:28.174Z,11.38
2023-04-18T17:58:59.037Z,10.23
2023-04-18T18:01:38.047Z,10.52
2023-04-18T18:04:13.457Z,13.30
2023-04-18T18:07:00.524Z,12.57
2023-04-18T18:09:41.757Z,13.70
2023-04-18T18:12:25.028Z,14.05
2023-04-18T18:15:00.530Z,16.00
2023-04-18T18:17:36.004Z,16.13
2023-04-18T18:20:18.283Z,17.63
2023-04-18T18:22:53.158Z,17.92
2023-04-18T18:25:33.752Z,23.38
2023-04-18T18:28:17.314Z,21.10
2023-04-18T18:30:53.277Z,17.98
2023-04-18T18:33:32.368Z,19.80
2023-04-18T18:36:10.880Z,20.27
2023-04-18T18:38:45.544Z,18.83
2023-04-18T18:41:18.812Z,21.00
2023-04-18T18:44:08.755Z,20.23
2023-04-18T18:46:43.379Z,23.67
2023-04-18T18:49:20.511Z,23.83
2023-04-18T18:52:07.377Z,22.38
2023-04-18T18:54:45.290Z,21.42
2023-04-18T18:57:30.093Z,19.25
2023-04-18T19:00:05.893Z,16.60
2023-04-18T19:02:38.979Z,18.38
2023-04-18T19:05:18.429Z,16.08
2023-04-18T19:08:00.172Z,14.82
2023-04-18T19:10:41.231Z,14.60
2023-04-18T19:13:18.183Z,13.13
2023-04-18T19:15:57.445Z,15.30
2023-04-18T19:18:33.057Z,12.02
2023-04-18T19:21:10.302Z,13.93
2023-04-18T19:23:49.113Z,14.00
2023-04-18T19:26:25.895Z,17.35
2023-04-18T19:29:01.726Z,15.07
2023-04-18T19:31:45.546Z,17.40
2023-04-18T19:34:26.989Z,18.67
2023-04-18T19:37:03.477Z,19.63
2023-04-18T19:39:36.553Z,22.40
2023-04-18T19:42:15.681Z,16.27
2023-04-18T19:45:00.607Z,19.52
2023-04-18T19:47:38.810Z,20.50
2023-04-18T19:50:33.897Z,19.73
2023-04-18T19:53:14.088Z,18.02
2023-04-18T19:55:51.873Z,15.75
2023-04-18T19:58:47.039Z,17.35
2023-04-18T20:01:25.739Z,16.70
2023-04-18T20:04:04.469Z,16.13
2023-04-18T20:06:45.080Z,16.10
2023-04-18T20:09:20.422Z,17.92
2023-04-18T20:11:52.108Z,17.88
2023-04-18T20:14:26.249Z,14.73
2023-04-18T20:17:08.564Z,15.18
2023-04-18T20:19:49.320Z,16.92
2023-04-18T20:22:30.484Z,14.45
2023-04-18T20:25:07.331Z,14.63
2023-04-18T20:27:41.471Z,14.38
2023-04-18T20:30:22.531Z,14.63
2023-04-18T20:33:08.029Z,16.50
2023-04-18T20:35:51.509Z,12.25
2023-04-18T20:38:30.001Z,11.95
2023-04-18T20:41:06.750Z,11.82
2023-04-18T20:43:37.550Z,14.75
2023-04-18T20:46:25.223Z,14.75
2023-04-18T20:48:59.672Z,18.02
2023-04-18T20:51:46.732Z,17.98
2023-04-18T20:54:25.481Z,17.90
2023-04-18T20:57:05.304Z,17.88
2023-04-18T20:59:38.716Z,18.63
2023-04-18T21:02:15.760Z,22.83
2023-04-18T21:04:54.357Z,20.02
2023-04-18T21:07:36.109Z,19.50
2023-04-18T21:10:28.072Z,19.80
2023-04-18T21:13:10.573Z,20.38
2023-04-18T21:15:51.192Z,21.20
2023-04-18T21:18:33.340Z,21.95
2023-04-18T21:21:10.690Z,27.08
2023-04-18T21:23:50.603Z,20.20
2023-04-18T21:26:27.073Z,19.65
2023-04-18T21:29:06.378Z,18.88
2023-04-18T21:31:43.814Z,18.20
2023-04-18T21:34:25.612Z,20.15
2023-04-18T21:37:04.653Z,18.52
2023-04-18T21:39:51.813Z,18.40
2023-04-18T21:42:29.506Z,19.45
2023-04-18T21:45:04.069Z,19.48
2023-04-18T21:47:36.886Z,18.10
2023-04-18T21:50:16.724Z,17.58
2023-04-18T21:52:56.870Z,17.75
2023-04-18T21:55:34.741Z,15.55
2023-04-18T21:58:10.048Z,14.50
2023-04-18T22:00:49.735Z,13.35
2023-04-18T22:03:25.866Z,13.82
2023-04-18T22:06:01.961Z,15.77
2023-04-18T22:08:43.444Z,13.70
2023-04-18T22:11:24.288Z,15.20
2023-04-18T22:14:04.636Z,14.52
2023-04-18T22:16:45.513Z,14.05
2023-04-18T22:19:29.369Z,15.18
2023-04-18T22:22:04.358Z,14.43
2023-04-18T22:24:46.809Z,16.23
2023-04-18T22:27:31.078Z,15.93
2023-04-18T22:30:07.192Z,16.45
2023-04-18T22:32:49.319Z,16.88
2023-04-18T22:35:24.142Z,17.25
2023-04-18T22:38:11.981Z,17.67
2023-04-18T22:40:50.064Z,16.33
2023-04-18T22:43:29.229Z,15.65
2023-04-18T22:46:09.059Z,14.90
2023-04-18T22:48:48.067Z,15.60
2023-04-18T22:51:22.372Z,16.52
2023-04-18T22:54:00.682Z,16.45
2023-04-18T22:56:39.428Z,16.38
2023-04-18T22:59:20.526Z,16.88
2023-04-18T23:04:32.548Z,15.20
2023-04-18T23:07:07.124Z,16.58
2023-04-18T23:09:45.307Z,15.48
2023-04-18T23:12:32.794Z,16.33
2023-04-18T23:15:18.393Z,23.33
2023-04-18T23:17:59.671Z,33.15
2023-04-18T23:20:47.169Z,30.20
2023-04-18T23:23:23.085Z,75.88
2023-04-18T23:25:59.461Z,22.52
2023-04-18T23:28:31.308Z,79.70
2023-04-18T23:31:12.893Z,37.05
2023-04-18T23:33:58.861Z,69.03
2023-04-18T23:36:40.537Z,54.30
2023-04-18T23:39:16.957Z,40.58
2023-04-18T23:41:50.015Z,69.70
2023-04-18T23:44:24.057Z,50.67
2023-04-18T23:46:58.335Z,42.17
2023-04-18T23:49:33.456Z,64.63
2023-04-18T23:52:08.285Z,44.42
2023-04-18T23:54:45.710Z,49.08
2023-04-18T23:57:25.441Z,60.83
